sensor_id;sensor_type;location;lat;lon;timestamp;temperature;humidity
28071;DHT22;15383;48.408;9.968;2022-09-09T00:43:30;19.00;90.80
28071;DHT22;15383;48.408;9.968;2022-09-09T01:06:54;19.00;90.80
28071;DHT22;15383;48.408;9.968;2022-09-09T01:17:05;18.90;90.80
28071;DHT22;15383;48.408;9.968;2022-09-09T01:20:15;18.90;90.80
28071;DHT22;15383;48.408;9.968;2022-09-09T01:23:48;18.90;90.80
28071;DHT22;15383;48.408;9.968;2022-09-09T01:37:08;18.90;90.80
28071;DHT22;15383;48.408;9.968;2022-09-09T01:40:29;18.90;90.80
28071;DHT22;15383;48.408;9.968;2022-09-09T03:29:40;18.70;90.70
28071;DHT22;15383;48.408;9.968;2022-09-09T03:46:21;18.60;90.70
28071;DHT22;15383;48.408;9.968;2022-09-09T04:02:22;18.60;90.60
28071;DHT22;15383;48.408;9.968;2022-09-09T04:04:50;18.70;90.60
28071;DHT22;15383;48.408;9.968;2022-09-09T04:17:37;18.70;90.60
28071;DHT22;15383;48.408;9.968;2022-09-09T04:20:16;18.70;90.60
28071;DHT22;15383;48.408;9.968;2022-09-09T04:22:50;18.70;90.60
28071;DHT22;15383;48.408;9.968;2022-09-09T04:25:16;18.70;90.60
28071;DHT22;15383;48.408;9.968;2022-09-09T04:38:05;18.70;90.70
28071;DHT22;15383;48.408;9.968;2022-09-09T04:51:06;18.70;90.70
28071;DHT22;15383;48.408;9.968;2022-09-09T04:53:32;18.70;90.70
28071;DHT22;15383;48.408;9.968;2022-09-09T04:56:07;18.70;90.70
28071;DHT22;15383;48.408;9.968;2022-09-09T04:58:33;18.70;90.70
28071;DHT22;15383;48.408;9.968;2022-09-09T05:01:07;18.70;90.70
28071;DHT22;15383;48.408;9.968;2022-09-09T05:03:33;18.70;90.70
28071;DHT22;15383;48.408;9.968;2022-09-09T05:06:06;18.70;90.70
28071;DHT22;15383;48.408;9.968;2022-09-09T05:08:32;18.70;90.70
28071;DHT22;15383;48.408;9.968;2022-09-09T05:10:57;18.70;90.70
28071;DHT22;15383;48.408;9.968;2022-09-09T05:13:25;18.80;90.70
28071;DHT22;15383;48.408;9.968;2022-09-09T05:19:15;18.70;90.70
28071;DHT22;15383;48.408;9.968;2022-09-09T05:21:44;18.70;91.10
28071;DHT22;15383;48.408;9.968;2022-09-09T05:24:09;18.70;90.70
28071;DHT22;15383;48.408;9.968;2022-09-09T05:26:36;18.80;90.70
28071;DHT22;15383;48.408;9.968;2022-09-09T05:29:01;18.70;90.70
28071;DHT22;15383;48.408;9.968;2022-09-09T05:31:29;18.80;90.70
28071;DHT22;15383;48.408;9.968;2022-09-09T05:33:55;18.80;90.70
28071;DHT22;15383;48.408;9.968;2022-09-09T05:36:22;18.70;90.70
28071;DHT22;15383;48.408;9.968;2022-09-09T05:38:48;18.80;90.70
28071;DHT22;15383;48.408;9.968;2022-09-09T05:41:15;18.70;90.70
28071;DHT22;15383;48.408;9.968;2022-09-09T05:43:42;18.80;90.70
28071;DHT22;15383;48.408;9.968;2022-09-09T05:46:14;18.80;90.70
28071;DHT22;15383;48.408;9.968;2022-09-09T05:48:41;18.80;90.80
28071;DHT22;15383;48.408;9.968;2022-09-09T05:51:12;18.80;90.80
28071;DHT22;15383;48.408;9.968;2022-09-09T05:53:41;18.80;90.80
28071;DHT22;15383;48.408;9.968;2022-09-09T05:56:14;18.80;90.80
28071;DHT22;15383;48.408;9.968;2022-09-09T05:58:41;18.80;90.80
28071;DHT22;15383;48.408;9.968;2022-09-09T06:01:26;18.80;90.80
28071;DHT22;15383;48.408;9.968;2022-09-09T06:03:52;18.80;90.80
28071;DHT22;15383;48.408;9.968;2022-09-09T06:06:23;18.80;90.80
28071;DHT22;15383;48.408;9.968;2022-09-09T06:08:52;18.80;90.80
28071;DHT22;15383;48.408;9.968;2022-09-09T06:11:22;18.80;90.80
28071;DHT22;15383;48.408;9.968;2022-09-09T06:13:49;18.80;90.80
28071;DHT22;15383;48.408;9.968;2022-09-09T06:16:20;18.80;90.80
28071;DHT22;15383;48.408;9.968;2022-09-09T06:18:45;18.80;90.80
28071;DHT22;15383;48.408;9.968;2022-09-09T06:21:26;18.80;90.80
28071;DHT22;15383;48.408;9.968;2022-09-09T06:23:53;18.80;90.80
28071;DHT22;15383;48.408;9.968;2022-09-09T06:26:26;18.80;90.90
28071;DHT22;15383;48.408;9.968;2022-09-09T06:28:54;18.80;90.90
28071;DHT22;15383;48.408;9.968;2022-09-09T06:31:22;18.80;90.90
28071;DHT22;15383;48.408;9.968;2022-09-09T06:33:49;18.80;90.90
28071;DHT22;15383;48.408;9.968;2022-09-09T06:36:24;18.80;90.90
28071;DHT22;15383;48.408;9.968;2022-09-09T06:38:49;18.80;90.90
28071;DHT22;15383;48.408;9.968;2022-09-09T06:41:17;18.80;90.90
28071;DHT22;15383;48.408;9.968;2022-09-09T06:43:44;18.90;90.90
28071;DHT22;15383;48.408;9.968;2022-09-09T06:46:11;18.90;90.90
28071;DHT22;15383;48.408;9.968;2022-09-09T06:48:39;18.90;90.90
28071;DHT22;15383;48.408;9.968;2022-09-09T06:51:07;18.90;90.90
28071;DHT22;15383;48.408;9.968;2022-09-09T06:53:34;18.90;90.90
28071;DHT22;15383;48.408;9.968;2022-09-09T06:58:39;18.90;90.90
28071;DHT22;15383;48.408;9.968;2022-09-09T07:01:08;19.00;90.90
28071;DHT22;15383;48.408;9.968;2022-09-09T07:03:35;19.00;90.80
28071;DHT22;15383;48.408;9.968;2022-09-09T07:06:01;19.00;90.80
28071;DHT22;15383;48.408;9.968;2022-09-09T07:08:27;19.00;90.80
28071;DHT22;15383;48.408;9.968;2022-09-09T07:10:53;19.10;90.80
28071;DHT22;15383;48.408;9.968;2022-09-09T07:13:26;19.10;90.80
28071;DHT22;15383;48.408;9.968;2022-09-09T07:15:52;19.20;90.90
28071;DHT22;15383;48.408;9.968;2022-09-09T07:18:19;19.20;90.90
28071;DHT22;15383;48.408;9.968;2022-09-09T07:20:53;19.30;90.90
28071;DHT22;15383;48.408;9.968;2022-09-09T07:23:20;19.30;90.90
28071;DHT22;15383;48.408;9.968;2022-09-09T07:25:46;19.40;90.90
28071;DHT22;15383;48.408;9.968;2022-09-09T07:28:13;19.50;91.00
28071;DHT22;15383;48.408;9.968;2022-09-09T07:30:39;19.50;91.00
28071;DHT22;15383;48.408;9.968;2022-09-09T07:33:05;19.50;91.10
28071;DHT22;15383;48.408;9.968;2022-09-09T07:35:31;19.60;91.10
28071;DHT22;15383;48.408;9.968;2022-09-09T07:37:56;19.70;91.20
28071;DHT22;15383;48.408;9.968;2022-09-09T07:40:23;19.70;91.10
28071;DHT22;15383;48.408;9.968;2022-09-09T07:42:48;19.80;91.10
28071;DHT22;15383;48.408;9.968;2022-09-09T07:45:14;19.80;91.00
28071;DHT22;15383;48.408;9.968;2022-09-09T07:47:40;19.90;90.90
28071;DHT22;15383;48.408;9.968;2022-09-09T07:50:08;20.00;90.90
28071;DHT22;15383;48.408;9.968;2022-09-09T07:52:35;20.00;90.90
28071;DHT22;15383;48.408;9.968;2022-09-09T07:55:01;20.00;90.70
28071;DHT22;15383;48.408;9.968;2022-09-09T07:57:30;20.10;90.70
28071;DHT22;15383;48.408;9.968;2022-09-09T07:59:56;20.10;90.60
28071;DHT22;15383;48.408;9.968;2022-09-09T08:02:23;20.20;90.60
28071;DHT22;15383;48.408;9.968;2022-09-09T08:04:48;20.20;90.60
28071;DHT22;15383;48.408;9.968;2022-09-09T08:07:14;20.20;90.50
28071;DHT22;15383;48.408;9.968;2022-09-09T08:09:41;20.20;90.50
28071;DHT22;15383;48.408;9.968;2022-09-09T08:12:17;20.30;90.50
28071;DHT22;15383;48.408;9.968;2022-09-09T08:14:43;20.30;90.50
28071;DHT22;15383;48.408;9.968;2022-09-09T08:17:09;20.30;90.50
28071;DHT22;15383;48.408;9.968;2022-09-09T08:19:35;20.30;90.50
28071;DHT22;15383;48.408;9.968;2022-09-09T08:22:02;20.40;90.50
28071;DHT22;15383;48.408;9.968;2022-09-09T08:24:28;20.40;90.40
28071;DHT22;15383;48.408;9.968;2022-09-09T08:26:54;20.50;90.40
28071;DHT22;15383;48.408;9.968;2022-09-09T08:29:20;20.50;90.40
28071;DHT22;15383;48.408;9.968;2022-09-09T08:31:54;20.50;90.30
28071;DHT22;15383;48.408;9.968;2022-09-09T08:34:20;20.50;90.30
28071;DHT22;15383;48.408;9.968;2022-09-09T08:36:49;20.60;90.30
28071;DHT22;15383;48.408;9.968;2022-09-09T08:39:17;20.50;90.20
28071;DHT22;15383;48.408;9.968;2022-09-09T08:55:39;20.80;90.10
28071;DHT22;15383;48.408;9.968;2022-09-09T09:00:49;20.80;90.00
28071;DHT22;15383;48.408;9.968;2022-09-09T09:12:01;20.90;89.70
28071;DHT22;15383;48.408;9.968;2022-09-09T09:14:30;21.00;89.80
28071;DHT22;15383;48.408;9.968;2022-09-09T09:17:01;20.90;89.70
28071;DHT22;15383;48.408;9.968;2022-09-09T09:19:28;20.90;89.60
28071;DHT22;15383;48.408;9.968;2022-09-09T09:21:59;20.90;89.50
28071;DHT22;15383;48.408;9.968;2022-09-09T09:27:30;20.90;89.70
28071;DHT22;15383;48.408;9.968;2022-09-09T09:39:55;20.90;89.40
28071;DHT22;15383;48.408;9.968;2022-09-09T09:42:30;21.00;89.50
28071;DHT22;15383;48.408;9.968;2022-09-09T09:44:56;20.90;89.40
28071;DHT22;15383;48.408;9.968;2022-09-09T09:47:22;20.90;89.50
28071;DHT22;15383;48.408;9.968;2022-09-09T09:50:18;20.90;89.50
28071;DHT22;15383;48.408;9.968;2022-09-09T09:52:57;20.90;89.60
28071;DHT22;15383;48.408;9.968;2022-09-09T09:55:23;20.90;89.60
28071;DHT22;15383;48.408;9.968;2022-09-09T09:57:49;20.80;89.60
28071;DHT22;15383;48.408;9.968;2022-09-09T10:00:16;20.80;89.60
28071;DHT22;15383;48.408;9.968;2022-09-09T10:02:44;20.80;89.60
28071;DHT22;15383;48.408;9.968;2022-09-09T10:05:19;20.80;89.70
28071;DHT22;15383;48.408;9.968;2022-09-09T10:07:46;20.80;89.70
28071;DHT22;15383;48.408;9.968;2022-09-09T10:22:44;20.70;89.90
28071;DHT22;15383;48.408;9.968;2022-09-09T10:25:17;20.70;89.90
28071;DHT22;15383;48.408;9.968;2022-09-09T10:33:21;20.70;90.00
28071;DHT22;15383;48.408;9.968;2022-09-09T10:38:42;20.60;90.00
28071;DHT22;15383;48.408;9.968;2022-09-09T10:44:45;20.60;90.00
28071;DHT22;15383;48.408;9.968;2022-09-09T10:57:21;20.50;90.00
28071;DHT22;15383;48.408;9.968;2022-09-09T10:59:52;20.50;90.00
28071;DHT22;15383;48.408;9.968;2022-09-09T11:02:27;20.50;90.00
28071;DHT22;15383;48.408;9.968;2022-09-09T11:05:03;20.50;90.00
28071;DHT22;15383;48.408;9.968;2022-09-09T11:07:39;20.50;90.00
28071;DHT22;15383;48.408;9.968;2022-09-09T11:10:20;20.50;90.00
28071;DHT22;15383;48.408;9.968;2022-09-09T11:12:49;20.50;90.00
28071;DHT22;15383;48.408;9.968;2022-09-09T11:18:04;20.40;90.10
28071;DHT22;15383;48.408;9.968;2022-09-09T11:26:33;20.40;90.00
28071;DHT22;15383;48.408;9.968;2022-09-09T11:34:39;20.50;90.10
28071;DHT22;15383;48.408;9.968;2022-09-09T11:39:38;20.50;90.10
28071;DHT22;15383;48.408;9.968;2022-09-09T11:44:52;20.40;90.10
28071;DHT22;15383;48.408;9.968;2022-09-09T11:47:26;20.40;90.20
28071;DHT22;15383;48.408;9.968;2022-09-09T11:50:07;20.40;90.20
28071;DHT22;15383;48.408;9.968;2022-09-09T11:52:39;20.40;90.20
28071;DHT22;15383;48.408;9.968;2022-09-09T11:55:24;20.40;90.30
28071;DHT22;15383;48.408;9.968;2022-09-09T11:57:58;20.40;90.20
28071;DHT22;15383;48.408;9.968;2022-09-09T12:00:45;20.40;90.20
28071;DHT22;15383;48.408;9.968;2022-09-09T12:08:45;20.40;90.20
28071;DHT22;15383;48.408;9.968;2022-09-09T12:11:29;20.50;90.30
28071;DHT22;15383;48.408;9.968;2022-09-09T12:13:59;20.50;90.30
28071;DHT22;15383;48.408;9.968;2022-09-09T12:16:36;20.50;90.30
28071;DHT22;15383;48.408;9.968;2022-09-09T12:19:21;20.50;90.30
28071;DHT22;15383;48.408;9.968;2022-09-09T12:25:29;20.50;90.30
28071;DHT22;15383;48.408;9.968;2022-09-09T12:27:40;20.50;90.30
28071;DHT22;15383;48.408;9.968;2022-09-09T12:30:14;20.50;90.30
28071;DHT22;15383;48.408;9.968;2022-09-09T12:32:46;20.50;90.30
28071;DHT22;15383;48.408;9.968;2022-09-09T12:35:26;20.50;90.40
28071;DHT22;15383;48.408;9.968;2022-09-09T12:38:01;20.50;90.40
28071;DHT22;15383;48.408;9.968;2022-09-09T12:40:35;20.50;90.40
28071;DHT22;15383;48.408;9.968;2022-09-09T12:43:31;20.50;90.80
28071;DHT22;15383;48.408;9.968;2022-09-09T12:46:07;20.50;90.50
28071;DHT22;15383;48.408;9.968;2022-09-09T12:48:51;20.50;90.50
28071;DHT22;15383;48.408;9.968;2022-09-09T12:51:34;20.40;90.50
28071;DHT22;15383;48.408;9.968;2022-09-09T13:00:55;20.40;90.50
28071;DHT22;15383;48.408;9.968;2022-09-09T13:03:33;20.40;90.50
28071;DHT22;15383;48.408;9.968;2022-09-09T13:06:13;20.40;90.40
28071;DHT22;15383;48.408;9.968;2022-09-09T13:08:43;20.40;90.40
28071;DHT22;15383;48.408;9.968;2022-09-09T13:11:14;20.40;90.40
28071;DHT22;15383;48.408;9.968;2022-09-09T13:20:31;20.40;90.20
28071;DHT22;15383;48.408;9.968;2022-09-09T13:29:54;20.40;90.00
28071;DHT22;15383;48.408;9.968;2022-09-09T13:32:21;20.30;90.00
28071;DHT22;15383;48.408;9.968;2022-09-09T13:34:58;20.40;90.00
28071;DHT22;15383;48.408;9.968;2022-09-09T13:37:37;20.40;90.00
28071;DHT22;15383;48.408;9.968;2022-09-09T13:40:05;20.40;90.00
28071;DHT22;15383;48.408;9.968;2022-09-09T13:45:36;20.40;90.00
28071;DHT22;15383;48.408;9.968;2022-09-09T13:48:09;20.50;88.70
28071;DHT22;15383;48.408;9.968;2022-09-09T13:50:35;20.40;87.90
28071;DHT22;15383;48.408;9.968;2022-09-09T13:53:01;20.50;86.90
28071;DHT22;15383;48.408;9.968;2022-09-09T13:55:28;20.50;86.90
28071;DHT22;15383;48.408;9.968;2022-09-09T13:58:02;20.40;86.30
28071;DHT22;15383;48.408;9.968;2022-09-09T14:00:32;20.40;86.00
28071;DHT22;15383;48.408;9.968;2022-09-09T14:02:59;20.40;85.30
28071;DHT22;15383;48.408;9.968;2022-09-09T14:05:29;20.40;84.80
28071;DHT22;15383;48.408;9.968;2022-09-09T14:07:55;20.40;84.10
28071;DHT22;15383;48.408;9.968;2022-09-09T14:10:21;20.40;84.20
28071;DHT22;15383;48.408;9.968;2022-09-09T14:12:47;20.50;83.70
28071;DHT22;15383;48.408;9.968;2022-09-09T14:15:13;20.40;83.80
28071;DHT22;15383;48.408;9.968;2022-09-09T14:17:39;20.50;84.00
28071;DHT22;15383;48.408;9.968;2022-09-09T14:20:06;20.40;83.60
28071;DHT22;15383;48.408;9.968;2022-09-09T14:22:35;20.40;83.60
28071;DHT22;15383;48.408;9.968;2022-09-09T14:25:01;20.40;83.40
28071;DHT22;15383;48.408;9.968;2022-09-09T14:27:27;20.40;83.00
28071;DHT22;15383;48.408;9.968;2022-09-09T14:29:54;20.40;83.30
28071;DHT22;15383;48.408;9.968;2022-09-09T14:32:20;20.30;83.40
28071;DHT22;15383;48.408;9.968;2022-09-09T14:34:46;20.30;83.40
28071;DHT22;15383;48.408;9.968;2022-09-09T14:37:15;20.30;83.50
28071;DHT22;15383;48.408;9.968;2022-09-09T14:39:41;20.30;83.40
28071;DHT22;15383;48.408;9.968;2022-09-09T14:42:12;20.30;83.50
28071;DHT22;15383;48.408;9.968;2022-09-09T14:44:38;20.30;83.60
28071;DHT22;15383;48.408;9.968;2022-09-09T14:47:07;20.30;83.50
28071;DHT22;15383;48.408;9.968;2022-09-09T14:49:34;20.30;83.20
28071;DHT22;15383;48.408;9.968;2022-09-09T14:52:00;20.40;83.30
28071;DHT22;15383;48.408;9.968;2022-09-09T14:54:26;20.40;83.40
28071;DHT22;15383;48.408;9.968;2022-09-09T14:56:51;20.30;83.50
28071;DHT22;15383;48.408;9.968;2022-09-09T14:59:17;20.40;83.40
28071;DHT22;15383;48.408;9.968;2022-09-09T15:01:43;20.30;84.10
28071;DHT22;15383;48.408;9.968;2022-09-09T15:04:12;20.40;83.60
28071;DHT22;15383;48.408;9.968;2022-09-09T15:06:38;20.40;83.30
28071;DHT22;15383;48.408;9.968;2022-09-09T15:09:04;20.30;83.10
28071;DHT22;15383;48.408;9.968;2022-09-09T15:11:34;20.40;83.10
28071;DHT22;15383;48.408;9.968;2022-09-09T15:14:07;20.40;83.10
28071;DHT22;15383;48.408;9.968;2022-09-09T15:16:32;20.30;83.10
28071;DHT22;15383;48.408;9.968;2022-09-09T15:18:59;20.40;83.30
28071;DHT22;15383;48.408;9.968;2022-09-09T15:21:28;20.30;83.20
28071;DHT22;15383;48.408;9.968;2022-09-09T15:23:54;20.40;83.20
28071;DHT22;15383;48.408;9.968;2022-09-09T15:26:20;20.30;83.00
28071;DHT22;15383;48.408;9.968;2022-09-09T15:28:47;20.30;83.10
28071;DHT22;15383;48.408;9.968;2022-09-09T15:31:22;20.30;83.10
28071;DHT22;15383;48.408;9.968;2022-09-09T15:33:55;20.30;82.60
28071;DHT22;15383;48.408;9.968;2022-09-09T15:38:52;20.30;82.30
28071;DHT22;15383;48.408;9.968;2022-09-09T15:41:19;20.30;82.50
28071;DHT22;15383;48.408;9.968;2022-09-09T15:43:47;20.30;82.50
28071;DHT22;15383;48.408;9.968;2022-09-09T15:46:22;20.30;81.80
28071;DHT22;15383;48.408;9.968;2022-09-09T15:48:49;20.30;81.90
28071;DHT22;15383;48.408;9.968;2022-09-09T15:51:16;20.30;81.60
28071;DHT22;15383;48.408;9.968;2022-09-09T15:53:42;20.30;81.70
28071;DHT22;15383;48.408;9.968;2022-09-09T15:56:08;20.30;81.70
28071;DHT22;15383;48.408;9.968;2022-09-09T15:58:34;20.30;81.70
28071;DHT22;15383;48.408;9.968;2022-09-09T16:01:05;20.30;81.70
28071;DHT22;15383;48.408;9.968;2022-09-09T16:03:36;20.30;81.50
28071;DHT22;15383;48.408;9.968;2022-09-09T16:06:03;20.30;81.40
28071;DHT22;15383;48.408;9.968;2022-09-09T16:11:10;20.30;81.30
28071;DHT22;15383;48.408;9.968;2022-09-09T16:13:38;20.30;81.30
28071;DHT22;15383;48.408;9.968;2022-09-09T16:16:09;20.20;81.10
28071;DHT22;15383;48.408;9.968;2022-09-09T16:18:57;20.30;82.00
28071;DHT22;15383;48.408;9.968;2022-09-09T16:21:26;20.20;80.90
28071;DHT22;15383;48.408;9.968;2022-09-09T16:23:54;20.20;81.20
28071;DHT22;15383;48.408;9.968;2022-09-09T16:26:20;20.20;80.30
28071;DHT22;15383;48.408;9.968;2022-09-09T16:28:47;20.20;80.30
28071;DHT22;15383;48.408;9.968;2022-09-09T16:31:17;20.20;80.10
28071;DHT22;15383;48.408;9.968;2022-09-09T16:33:42;20.20;79.90
28071;DHT22;15383;48.408;9.968;2022-09-09T16:36:11;20.20;79.90
28071;DHT22;15383;48.408;9.968;2022-09-09T16:38:38;20.20;79.70
28071;DHT22;15383;48.408;9.968;2022-09-09T16:41:05;20.20;79.50
28071;DHT22;15383;48.408;9.968;2022-09-09T16:43:35;20.20;79.20
28071;DHT22;15383;48.408;9.968;2022-09-09T16:46:02;20.10;79.00
28071;DHT22;15383;48.408;9.968;2022-09-09T16:48:32;20.10;78.80
28071;DHT22;15383;48.408;9.968;2022-09-09T16:51:06;20.10;78.60
28071;DHT22;15383;48.408;9.968;2022-09-09T16:53:33;20.10;78.60
28071;DHT22;15383;48.408;9.968;2022-09-09T16:56:08;20.10;78.40
28071;DHT22;15383;48.408;9.968;2022-09-09T16:58:34;20.10;78.40
28071;DHT22;15383;48.408;9.968;2022-09-09T17:01:03;20.10;78.40
28071;DHT22;15383;48.408;9.968;2022-09-09T17:03:30;20.10;78.10
28071;DHT22;15383;48.408;9.968;2022-09-09T17:05:57;20.10;78.10
28071;DHT22;15383;48.408;9.968;2022-09-09T17:08:23;20.10;77.90
28071;DHT22;15383;48.408;9.968;2022-09-09T17:10:49;20.00;77.80
28071;DHT22;15383;48.408;9.968;2022-09-09T17:13:15;20.00;77.60
28071;DHT22;15383;48.408;9.968;2022-09-09T17:15:42;20.00;77.50
28071;DHT22;15383;48.408;9.968;2022-09-09T17:18:10;20.00;77.60
28071;DHT22;15383;48.408;9.968;2022-09-09T17:20:40;20.00;77.60
28071;DHT22;15383;48.408;9.968;2022-09-09T17:23:10;20.00;77.40
28071;DHT22;15383;48.408;9.968;2022-09-09T17:25:36;20.00;77.40
28071;DHT22;15383;48.408;9.968;2022-09-09T17:28:03;20.00;77.30
28071;DHT22;15383;48.408;9.968;2022-09-09T17:30:35;19.90;76.90
28071;DHT22;15383;48.408;9.968;2022-09-09T17:33:02;19.90;76.50
28071;DHT22;15383;48.408;9.968;2022-09-09T17:35:29;19.90;76.10
28071;DHT22;15383;48.408;9.968;2022-09-09T17:37:55;19.90;75.80
28071;DHT22;15383;48.408;9.968;2022-09-09T17:40:22;19.90;75.20
28071;DHT22;15383;48.408;9.968;2022-09-09T17:42:48;19.90;74.90
28071;DHT22;15383;48.408;9.968;2022-09-09T17:45:14;19.90;74.80
28071;DHT22;15383;48.408;9.968;2022-09-09T17:47:40;19.90;74.70
28071;DHT22;15383;48.408;9.968;2022-09-09T17:50:08;19.90;74.50
28071;DHT22;15383;48.408;9.968;2022-09-09T17:52:34;19.80;74.10
28071;DHT22;15383;48.408;9.968;2022-09-09T17:55:00;19.80;74.10
28071;DHT22;15383;48.408;9.968;2022-09-09T17:57:25;19.80;74.00
28071;DHT22;15383;48.408;9.968;2022-09-09T17:59:51;19.80;73.90
28071;DHT22;15383;48.408;9.968;2022-09-09T18:02:17;19.80;73.90
28071;DHT22;15383;48.408;9.968;2022-09-09T18:04:42;19.80;74.00
28071;DHT22;15383;48.408;9.968;2022-09-09T18:07:08;19.80;74.00
28071;DHT22;15383;48.408;9.968;2022-09-09T18:09:34;19.80;74.00
28071;DHT22;15383;48.408;9.968;2022-09-09T18:11:59;19.80;73.90
28071;DHT22;15383;48.408;9.968;2022-09-09T18:14:28;19.80;73.90
28071;DHT22;15383;48.408;9.968;2022-09-09T18:16:56;19.80;73.90
28071;DHT22;15383;48.408;9.968;2022-09-09T18:19:25;19.70;73.70
28071;DHT22;15383;48.408;9.968;2022-09-09T18:21:52;19.70;73.80
28071;DHT22;15383;48.408;9.968;2022-09-09T18:24:19;19.70;73.50
28071;DHT22;15383;48.408;9.968;2022-09-09T18:26:46;19.70;73.70
28071;DHT22;15383;48.408;9.968;2022-09-09T18:29:14;19.70;74.00
